createdAt,value
2019-05-14T00:21:34.363Z,5.60
2019-05-14T00:51:41.157Z,5.37
2019-05-14T01:21:43.382Z,5.87
2019-05-14T01:51:45.993Z,5.73
2019-05-14T02:21:48.602Z,5.60
2019-05-14T02:51:51.237Z,5.60
2019-05-14T03:21:53.825Z,4.83
2019-05-14T03:52:00.061Z,4.70
2019-05-14T04:22:01.057Z,3.63
2019-05-14T04:52:03.661Z,4.73
2019-05-14T05:22:07.997Z,4.83
2019-05-14T05:52:10.516Z,5.40
2019-05-14T06:22:13.200Z,4.87
2019-05-14T06:52:15.822Z,5.42
2019-05-14T07:22:19.615Z,6.03
2019-05-14T07:52:22.265Z,5.15
2019-05-14T08:22:24.917Z,5.55
2019-05-14T08:52:28.832Z,5.10
2019-05-14T09:22:31.523Z,3.15
2019-05-14T09:52:34.126Z,2.70
2019-05-14T10:22:36.737Z,1.85
2019-05-14T10:52:39.632Z,2.40
2019-05-14T11:22:42.511Z,3.25
2019-05-14T11:52:45.105Z,2.37
2019-05-14T12:22:48.802Z,3.62
2019-05-14T12:52:52.115Z,2.22
2019-05-14T13:22:54.689Z,2.10
2019-05-14T13:53:02.678Z,2.25
2019-05-14T14:23:17.604Z,2.10
2019-05-14T14:53:09.206Z,2.10
2019-05-14T15:23:11.241Z,2.42
2019-05-14T15:53:13.923Z,3.77
2019-05-14T16:23:18.633Z,2.75
2019-05-14T16:53:20.934Z,2.58
2019-05-14T17:23:23.593Z,2.50
2019-05-14T17:53:26.245Z,4.20
2019-05-14T18:23:29.081Z,2.55
2019-05-14T18:53:31.845Z,3.90
2019-05-14T19:23:34.492Z,3.87
2019-05-14T19:53:39.197Z,3.75
2019-05-14T20:23:42.373Z,4.17
2019-05-14T20:53:45.343Z,3.40
2019-05-14T21:23:48.970Z,3.67
2019-05-14T21:53:51.822Z,2.40
2019-05-14T22:23:54.427Z,2.67
2019-05-14T22:53:58.852Z,2.67
2019-05-14T23:24:01.305Z,2.85
2019-05-14T23:54:03.942Z,5.62
